WZZ5423 EHRD-EDDH
Flight info
| Callsign | WZZ5423 |
|---|---|
| Flight time | 0h 41m |
| Altitude | 35000 |
| Route | ANDIK M105 RIBSO RIBSO7A |
| Aircraft | A20N/M-SDE2E3FGHIRWXY/LB1 |
Departure
| Time | 2026-05-06 13:12 |
|---|---|
| Airport | Rotterdam The Hague Airport (EHRD) |
Arrival
| Time | 2026-05-06 13:53 |
|---|---|
| Airport | Hamburg Helmut Schmidt Airport (EDDH) |
| Time | Latitude | Longitude | Altitude | Speed | Heading |
|---|---|---|---|---|---|
| 2026-05-06 12:50 | 51.95112 | 4.43489 | -6 ft | 0 kts | 327° |
| 2026-05-06 13:07 | 51.95115 | 4.43485 | -6 ft | 2 kts | 327° |
| 2026-05-06 13:08 | 51.95136 | 4.43466 | -6 ft | 5 kts | 338° |
| 2026-05-06 13:08 | 51.95168 | 4.43485 | -6 ft | 6 kts | 19° |
| 2026-05-06 13:08 | 51.95200 | 4.43485 | -7 ft | 3 kts | 322° |
| 2026-05-06 13:08 | 51.95235 | 4.43444 | -8 ft | 9 kts | 318° |
| 2026-05-06 13:09 | 51.95227 | 4.43359 | -7 ft | 9 kts | 235° |
| 2026-05-06 13:09 | 51.95187 | 4.43260 | -7 ft | 13 kts | 239° |
| 2026-05-06 13:09 | 51.95138 | 4.43118 | -6 ft | 16 kts | 246° |
| 2026-05-06 13:09 | 51.95114 | 4.43030 | -5 ft | 0 kts | 246° |
| 2026-05-06 13:10 | 51.95113 | 4.43027 | -5 ft | 2 kts | 246° |
| 2026-05-06 13:10 | 51.95123 | 4.42945 | -4 ft | 10 kts | 322° |
| 2026-05-06 13:10 | 51.95194 | 4.42867 | -4 ft | 14 kts | 332° |
| 2026-05-06 13:11 | 51.95243 | 4.42919 | -3 ft | 7 kts | 53° |
| 2026-05-06 13:11 | 51.95293 | 4.43033 | -5 ft | 33 kts | 57° |
| 2026-05-06 13:11 | 51.95560 | 4.43702 | -8 ft | 105 kts | 57° |
| 2026-05-06 13:11 | 51.96048 | 4.44915 | 180 ft | 137 kts | 54° |
| 2026-05-06 13:12 | 51.96579 | 4.46177 | 973 ft | 135 kts | 52° |
| 2026-05-06 13:12 | 51.97110 | 4.47427 | 1694 ft | 134 kts | 53° |
| 2026-05-06 13:12 | 51.97620 | 4.48774 | 2313 ft | 148 kts | 57° |
| 2026-05-06 13:12 | 51.98148 | 4.50322 | 2773 ft | 168 kts | 60° |
| 2026-05-06 13:13 | 51.98727 | 4.52197 | 3096 ft | 203 kts | 62° |
| 2026-05-06 13:13 | 51.99374 | 4.54408 | 3663 ft | 228 kts | 63° |
| 2026-05-06 13:13 | 52.00205 | 4.56687 | 4328 ft | 247 kts | 47° |
| 2026-05-06 13:13 | 52.01569 | 4.58410 | 5348 ft | 252 kts | 26° |
| 2026-05-06 13:14 | 52.03186 | 4.59585 | 6387 ft | 258 kts | 24° |
| 2026-05-06 13:14 | 52.04789 | 4.60964 | 7331 ft | 266 kts | 33° |
| 2026-05-06 13:14 | 52.06230 | 4.62895 | 8324 ft | 272 kts | 44° |
| 2026-05-06 13:14 | 52.07548 | 4.65153 | 9321 ft | 279 kts | 45° |
| 2026-05-06 13:15 | 52.08909 | 4.67466 | 10223 ft | 288 kts | 45° |
| 2026-05-06 13:15 | 52.10355 | 4.69906 | 10680 ft | 311 kts | 45° |
| 2026-05-06 13:15 | 52.11916 | 4.72536 | 11080 ft | 334 kts | 45° |
| 2026-05-06 13:15 | 52.13552 | 4.75297 | 11834 ft | 343 kts | 45° |
| 2026-05-06 13:16 | 52.15190 | 4.78067 | 12680 ft | 348 kts | 44° |
| 2026-05-06 13:16 | 52.16888 | 4.80942 | 13538 ft | 355 kts | 44° |
| 2026-05-06 13:16 | 52.18616 | 4.83871 | 14320 ft | 360 kts | 45° |
| 2026-05-06 13:16 | 52.20358 | 4.86830 | 15135 ft | 364 kts | 45° |
| 2026-05-06 13:17 | 52.22122 | 4.89829 | 15918 ft | 369 kts | 45° |
| 2026-05-06 13:17 | 52.23903 | 4.92858 | 16702 ft | 373 kts | 45° |
| 2026-05-06 13:17 | 52.25713 | 4.95941 | 17463 ft | 378 kts | 45° |
| 2026-05-06 13:17 | 52.27535 | 4.99046 | 18230 ft | 382 kts | 46° |
| 2026-05-06 13:18 | 52.29382 | 5.02200 | 18864 ft | 387 kts | 46° |
| 2026-05-06 13:18 | 52.31238 | 5.05360 | 19466 ft | 392 kts | 44° |
| 2026-05-06 13:18 | 52.33368 | 5.08160 | 20110 ft | 396 kts | 31° |
| 2026-05-06 13:18 | 52.35837 | 5.10173 | 20729 ft | 399 kts | 19° |
| 2026-05-06 13:19 | 52.38520 | 5.11431 | 21326 ft | 403 kts | 13° |
| 2026-05-06 13:19 | 52.41245 | 5.12608 | 21932 ft | 408 kts | 13° |
| 2026-05-06 13:19 | 52.44001 | 5.13811 | 22572 ft | 412 kts | 13° |
| 2026-05-06 13:19 | 52.46780 | 5.15029 | 23166 ft | 417 kts | 13° |
| 2026-05-06 13:20 | 52.49607 | 5.16271 | 23733 ft | 421 kts | 13° |
| 2026-05-06 13:20 | 52.52447 | 5.17521 | 24270 ft | 424 kts | 13° |
| 2026-05-06 13:20 | 52.55262 | 5.18761 | 24793 ft | 427 kts | 14° |
| 2026-05-06 13:20 | 52.58150 | 5.20034 | 25296 ft | 431 kts | 14° |
| 2026-05-06 13:21 | 52.61053 | 5.21317 | 25798 ft | 434 kts | 14° |
| 2026-05-06 13:21 | 52.63983 | 5.22614 | 26273 ft | 438 kts | 14° |
| 2026-05-06 13:21 | 52.66922 | 5.23916 | 26756 ft | 441 kts | 14° |
| 2026-05-06 13:21 | 52.69833 | 5.25547 | 27190 ft | 445 kts | 25° |
| 2026-05-06 13:22 | 52.72482 | 5.28230 | 27627 ft | 448 kts | 39° |
| 2026-05-06 13:22 | 52.74706 | 5.31855 | 28061 ft | 450 kts | 52° |
| 2026-05-06 13:22 | 52.76381 | 5.36212 | 28489 ft | 451 kts | 66° |
| 2026-05-06 13:22 | 52.77496 | 5.41038 | 28930 ft | 451 kts | 74° |
| 2026-05-06 13:23 | 52.78376 | 5.45946 | 29346 ft | 453 kts | 76° |
| 2026-05-06 13:23 | 52.79276 | 5.50946 | 29745 ft | 456 kts | 75° |
| 2026-05-06 13:23 | 52.80240 | 5.55948 | 30129 ft | 458 kts | 73° |
| 2026-05-06 13:23 | 52.81262 | 5.60957 | 30496 ft | 461 kts | 73° |
| 2026-05-06 13:24 | 52.82309 | 5.65941 | 30859 ft | 463 kts | 72° |
| 2026-05-06 13:24 | 52.83378 | 5.70970 | 31269 ft | 463 kts | 72° |
| 2026-05-06 13:24 | 52.84448 | 5.75998 | 31766 ft | 462 kts | 72° |
| 2026-05-06 13:24 | 52.85508 | 5.80986 | 32242 ft | 461 kts | 72° |
| 2026-05-06 13:25 | 52.86569 | 5.86004 | 32715 ft | 459 kts | 72° |
| 2026-05-06 13:25 | 52.87619 | 5.90981 | 33176 ft | 458 kts | 72° |
| 2026-05-06 13:25 | 52.88653 | 5.95897 | 33607 ft | 457 kts | 72° |
| 2026-05-06 13:25 | 52.89694 | 6.00864 | 34005 ft | 456 kts | 72° |
| 2026-05-06 13:26 | 52.90733 | 6.05834 | 34291 ft | 458 kts | 72° |
| 2026-05-06 13:26 | 52.91777 | 6.10834 | 34562 ft | 459 kts | 72° |
| 2026-05-06 13:26 | 52.92816 | 6.15829 | 34809 ft | 460 kts | 72° |
| 2026-05-06 13:27 | 52.94892 | 6.25839 | 34883 ft | 458 kts | 72° |
| 2026-05-06 13:27 | 52.96606 | 6.34145 | 34882 ft | 459 kts | 72° |
| 2026-05-06 13:28 | 52.98851 | 6.45077 | 34882 ft | 459 kts | 72° |
| 2026-05-06 13:28 | 53.00900 | 6.55109 | 34885 ft | 459 kts | 72° |
| 2026-05-06 13:29 | 53.02945 | 6.65165 | 34883 ft | 460 kts | 72° |
| 2026-05-06 13:29 | 53.04984 | 6.75246 | 34887 ft | 460 kts | 72° |
| 2026-05-06 13:30 | 53.07017 | 6.85346 | 34887 ft | 461 kts | 73° |
| 2026-05-06 13:30 | 53.09044 | 6.95472 | 34888 ft | 461 kts | 73° |
| 2026-05-06 13:31 | 53.11063 | 7.05608 | 34896 ft | 462 kts | 73° |
| 2026-05-06 13:31 | 53.13061 | 7.15686 | 34899 ft | 462 kts | 73° |
| 2026-05-06 13:32 | 53.15061 | 7.25832 | 34898 ft | 462 kts | 73° |
| 2026-05-06 13:32 | 53.17057 | 7.36034 | 34897 ft | 462 kts | 73° |
| 2026-05-06 13:33 | 53.19040 | 7.46214 | 34895 ft | 462 kts | 73° |
| 2026-05-06 13:33 | 53.21015 | 7.56411 | 34515 ft | 462 kts | 74° |
| 2026-05-06 13:33 | 53.21998 | 7.61505 | 33980 ft | 460 kts | 74° |
| 2026-05-06 13:34 | 53.22976 | 7.66579 | 33327 ft | 457 kts | 74° |
| 2026-05-06 13:34 | 53.23928 | 7.71534 | 32676 ft | 454 kts | 74° |
| 2026-05-06 13:34 | 53.24889 | 7.76550 | 32029 ft | 452 kts | 74° |
| 2026-05-06 13:34 | 53.25848 | 7.81565 | 31442 ft | 454 kts | 73° |
| 2026-05-06 13:35 | 53.26807 | 7.86594 | 30939 ft | 457 kts | 74° |
| 2026-05-06 13:35 | 53.27774 | 7.91677 | 30426 ft | 458 kts | 74° |
| 2026-05-06 13:35 | 53.28731 | 7.96727 | 29935 ft | 454 kts | 73° |
| 2026-05-06 13:35 | 53.29677 | 8.01724 | 29397 ft | 449 kts | 74° |
| 2026-05-06 13:36 | 53.30611 | 8.06671 | 28812 ft | 445 kts | 74° |
| 2026-05-06 13:36 | 53.31536 | 8.11585 | 28237 ft | 442 kts | 74° |
| 2026-05-06 13:36 | 53.32145 | 8.14827 | 27864 ft | 441 kts | 74° |
| 2026-05-06 13:36 | 53.33508 | 8.21203 | 27091 ft | 437 kts | 70° |
| 2026-05-06 13:37 | 53.34603 | 8.25915 | 26525 ft | 433 kts | 70° |
| 2026-05-06 13:37 | 53.35685 | 8.30591 | 25990 ft | 429 kts | 70° |
| 2026-05-06 13:37 | 53.36757 | 8.35241 | 25435 ft | 426 kts | 70° |
| 2026-05-06 13:37 | 53.37813 | 8.39842 | 24881 ft | 421 kts | 70° |
| 2026-05-06 13:38 | 53.38859 | 8.44404 | 24347 ft | 419 kts | 70° |
| 2026-05-06 13:38 | 53.39549 | 8.47420 | 23999 ft | 418 kts | 70° |
| 2026-05-06 13:38 | 53.40624 | 8.51931 | 23463 ft | 416 kts | 66° |
| 2026-05-06 13:38 | 53.41822 | 8.56321 | 22873 ft | 412 kts | 66° |
| 2026-05-06 13:39 | 53.43004 | 8.60670 | 22280 ft | 408 kts | 66° |
| 2026-05-06 13:39 | 53.44170 | 8.64976 | 21701 ft | 404 kts | 67° |
| 2026-05-06 13:39 | 53.45322 | 8.69244 | 21145 ft | 401 kts | 67° |
| 2026-05-06 13:39 | 53.46467 | 8.73496 | 20609 ft | 398 kts | 67° |
| 2026-05-06 13:40 | 53.47966 | 8.79072 | 19920 ft | 393 kts | 67° |
| 2026-05-06 13:40 | 53.48721 | 8.81885 | 19558 ft | 391 kts | 67° |
| 2026-05-06 13:40 | 53.49831 | 8.86027 | 19051 ft | 387 kts | 67° |
| 2026-05-06 13:40 | 53.50933 | 8.90149 | 18575 ft | 387 kts | 67° |
| 2026-05-06 13:41 | 53.52013 | 8.94201 | 18068 ft | 384 kts | 68° |
| 2026-05-06 13:41 | 53.53109 | 8.98250 | 17507 ft | 379 kts | 66° |
| 2026-05-06 13:41 | 53.54214 | 9.02263 | 16942 ft | 375 kts | 66° |
| 2026-05-06 13:41 | 53.55398 | 9.06129 | 16391 ft | 372 kts | 56° |
| 2026-05-06 13:42 | 53.57183 | 9.09253 | 15845 ft | 370 kts | 37° |
| 2026-05-06 13:42 | 53.59453 | 9.11211 | 15330 ft | 367 kts | 20° |
| 2026-05-06 13:42 | 53.61770 | 9.12946 | 14799 ft | 362 kts | 34° |
| 2026-05-06 13:42 | 53.63579 | 9.15804 | 14293 ft | 355 kts | 55° |
| 2026-05-06 13:43 | 53.64645 | 9.19497 | 13788 ft | 349 kts | 76° |
| 2026-05-06 13:43 | 53.64858 | 9.23515 | 13249 ft | 343 kts | 93° |
| 2026-05-06 13:43 | 53.64738 | 9.27512 | 12679 ft | 340 kts | 94° |
| 2026-05-06 13:43 | 53.64601 | 9.31488 | 12145 ft | 338 kts | 94° |
| 2026-05-06 13:44 | 53.64459 | 9.35373 | 11611 ft | 336 kts | 94° |
| 2026-05-06 13:44 | 53.64084 | 9.39228 | 11079 ft | 333 kts | 110° |
| 2026-05-06 13:44 | 53.62903 | 9.42530 | 10704 ft | 327 kts | 133° |
| 2026-05-06 13:44 | 53.61092 | 9.44696 | 10492 ft | 315 kts | 157° |
| 2026-05-06 13:45 | 53.59049 | 9.45775 | 10349 ft | 302 kts | 164° |
| 2026-05-06 13:45 | 53.54984 | 9.47671 | 9409 ft | 308 kts | 163° |
| 2026-05-06 13:45 | 53.52928 | 9.48594 | 8867 ft | 301 kts | 163° |
| 2026-05-06 13:46 | 53.50927 | 9.49462 | 8343 ft | 294 kts | 163° |
| 2026-05-06 13:46 | 53.48976 | 9.50317 | 7828 ft | 286 kts | 158° |
| 2026-05-06 13:46 | 53.47329 | 9.52001 | 7321 ft | 273 kts | 132° |
| 2026-05-06 13:46 | 53.46434 | 9.54630 | 6836 ft | 261 kts | 100° |
| 2026-05-06 13:47 | 53.46569 | 9.57569 | 6349 ft | 253 kts | 70° |
| 2026-05-06 13:47 | 53.47284 | 9.60248 | 5849 ft | 252 kts | 64° |
| 2026-05-06 13:47 | 53.48091 | 9.62882 | 5278 ft | 257 kts | 62° |
| 2026-05-06 13:47 | 53.48955 | 9.65530 | 4735 ft | 257 kts | 62° |
| 2026-05-06 13:48 | 53.49828 | 9.68088 | 4315 ft | 248 kts | 60° |
| 2026-05-06 13:48 | 53.50689 | 9.70525 | 3947 ft | 236 kts | 59° |
| 2026-05-06 13:48 | 53.51498 | 9.72750 | 3615 ft | 210 kts | 59° |
| 2026-05-06 13:48 | 53.52229 | 9.74722 | 3334 ft | 192 kts | 59° |
| 2026-05-06 13:49 | 53.52948 | 9.76624 | 3067 ft | 191 kts | 58° |
| 2026-05-06 13:49 | 53.53678 | 9.78486 | 2836 ft | 192 kts | 57° |
| 2026-05-06 13:49 | 53.54418 | 9.80313 | 2582 ft | 191 kts | 55° |
| 2026-05-06 13:49 | 53.55178 | 9.82121 | 2311 ft | 188 kts | 54° |
| 2026-05-06 13:50 | 53.55946 | 9.83897 | 2060 ft | 186 kts | 53° |
| 2026-05-06 13:50 | 53.56733 | 9.85668 | 1800 ft | 187 kts | 53° |
| 2026-05-06 13:50 | 53.57482 | 9.87317 | 1531 ft | 167 kts | 52° |
| 2026-05-06 13:50 | 53.58142 | 9.88745 | 1326 ft | 143 kts | 52° |
| 2026-05-06 13:51 | 53.58710 | 9.89957 | 1138 ft | 123 kts | 51° |
| 2026-05-06 13:51 | 53.59224 | 9.91042 | 970 ft | 118 kts | 51° |
| 2026-05-06 13:51 | 53.59733 | 9.92106 | 796 ft | 115 kts | 50° |
| 2026-05-06 13:51 | 53.60237 | 9.93146 | 629 ft | 115 kts | 51° |
| 2026-05-06 13:52 | 53.60734 | 9.94175 | 461 ft | 114 kts | 50° |
| 2026-05-06 13:52 | 53.61252 | 9.95204 | 309 ft | 116 kts | 51° |
| 2026-05-06 13:52 | 53.61775 | 9.96278 | 154 ft | 120 kts | 52° |
| 2026-05-06 13:52 | 53.62311 | 9.97347 | 55 ft | 116 kts | 50° |
| 2026-05-06 13:53 | 53.62736 | 9.98216 | 48 ft | 68 kts | 50° |
| 2026-05-06 13:53 | 53.62929 | 9.98602 | 47 ft | 30 kts | 50° |
| 2026-05-06 13:53 | 53.63054 | 9.98867 | 47 ft | 28 kts | 59° |
| 2026-05-06 13:53 | 53.63091 | 9.99160 | 48 ft | 25 kts | 95° |
| 2026-05-06 13:54 | 53.63087 | 9.99243 | 48 ft | 0 kts | 96° |
| 2026-05-06 13:56 | 53.63086 | 9.99261 | 48 ft | 5 kts | 96° |
| 2026-05-06 13:56 | 53.63089 | 9.99363 | 47 ft | 12 kts | 71° |
| 2026-05-06 13:56 | 53.63141 | 9.99503 | 48 ft | 16 kts | 53° |
| 2026-05-06 13:56 | 53.63215 | 9.99658 | 48 ft | 18 kts | 49° |
| 2026-05-06 13:57 | 53.63302 | 9.99810 | 49 ft | 18 kts | 58° |
| 2026-05-06 13:57 | 53.63377 | 9.99964 | 50 ft | 16 kts | 50° |
| 2026-05-06 13:57 | 53.63410 | 10.00030 | 50 ft | 0 kts | 50° |
| 2026-05-06 13:57 | 53.63419 | 10.00048 | 50 ft | 4 kts | 53° |
| 2026-05-06 13:58 | 53.63425 | 10.00108 | 51 ft | 7 kts | 97° |
| 2026-05-06 13:58 | 53.63423 | 10.00119 | 51 ft | 1 kts | 103° |
| 2026-05-06 13:58 | 53.63428 | 10.00148 | 51 ft | 4 kts | 66° |
| 2026-05-06 13:58 | 53.63445 | 10.00210 | 51 ft | 8 kts | 68° |
| 2026-05-06 13:59 | 53.63450 | 10.00313 | 51 ft | 8 kts | 88° |
| 2026-05-06 13:59 | 53.63451 | 10.00336 | 51 ft | 0 kts | 86° |